createdAt,value
2024-05-09T00:00:18.130Z,13.47
2024-05-09T00:05:27.177Z,13.50
2024-05-09T00:10:37.689Z,13.56
2024-05-09T00:15:44.523Z,13.59
2024-05-09T00:20:49.684Z,13.63
2024-05-09T00:25:58.080Z,13.67
2024-05-09T00:31:02.981Z,13.69
2024-05-09T00:36:10.202Z,13.73
2024-05-09T00:41:19.847Z,13.68
2024-05-09T00:46:25.019Z,13.66
2024-05-09T00:51:30.798Z,13.64
2024-05-09T00:56:38.627Z,13.61
2024-05-09T01:01:44.843Z,13.57
2024-05-09T01:06:51.263Z,13.53
2024-05-09T01:11:59.522Z,13.51
2024-05-09T01:17:04.985Z,13.45
2024-05-09T01:22:10.621Z,13.34
2024-05-09T01:27:18.852Z,13.27
2024-05-09T01:32:24.090Z,13.18
2024-05-09T01:37:29.309Z,13.10
2024-05-09T01:42:37.056Z,13.05
2024-05-09T01:52:47.144Z,13.01
2024-05-09T01:57:54.871Z,13.00
2024-05-09T02:03:00.459Z,12.97
2024-05-09T02:08:05.748Z,12.90
2024-05-09T02:13:13.544Z,12.85
2024-05-09T02:18:18.683Z,12.83
2024-05-09T02:23:23.826Z,12.84
2024-05-09T02:28:31.600Z,12.85
2024-05-09T02:33:36.915Z,12.84
2024-05-09T02:38:42.246Z,12.82
2024-05-09T02:43:50.083Z,12.81
2024-05-09T02:48:55.232Z,12.80
2024-05-09T02:54:00.319Z,12.79
2024-05-09T02:59:08.093Z,12.82
2024-05-09T03:04:13.263Z,12.86
2024-05-09T03:09:18.340Z,12.86
2024-05-09T03:14:26.740Z,12.88
2024-05-09T03:19:31.974Z,12.85
2024-05-09T03:24:37.172Z,12.80
2024-05-09T03:29:44.870Z,12.79
2024-05-09T03:34:49.811Z,12.83
2024-05-09T03:39:54.826Z,12.84
2024-05-09T03:45:03.279Z,12.87
2024-05-09T03:50:15.192Z,12.85
2024-05-09T03:55:23.257Z,12.83
2024-05-09T04:00:37.452Z,12.80
2024-05-09T04:05:45.268Z,12.77
2024-05-09T04:10:50.365Z,12.74
2024-05-09T04:15:58.228Z,12.73
2024-05-09T04:21:03.723Z,12.70
2024-05-09T04:26:09.885Z,12.70
2024-05-09T04:31:17.590Z,12.72
2024-05-09T04:36:23.107Z,12.78
2024-05-09T04:41:28.209Z,12.86
2024-05-09T04:46:36.058Z,12.98
2024-05-09T04:51:41.065Z,13.12
2024-05-09T04:56:46.017Z,13.94
2024-05-09T05:01:53.957Z,16.99
2024-05-09T05:07:02.091Z,17.08
2024-05-09T05:12:28.384Z,16.29
2024-05-09T05:17:36.435Z,16.21
2024-05-09T05:22:43.394Z,16.37
2024-05-09T05:27:48.431Z,16.36
2024-05-09T05:32:56.703Z,16.96
2024-05-09T05:38:01.853Z,16.99
2024-05-09T05:43:07.458Z,17.48
2024-05-09T05:48:17.117Z,17.86
2024-05-09T05:53:23.368Z,17.77
2024-05-09T05:58:28.365Z,18.43
2024-05-09T06:03:36.143Z,18.26
2024-05-09T06:08:41.129Z,19.51
2024-05-09T06:13:46.533Z,21.86
2024-05-09T06:18:54.407Z,21.52
2024-05-09T06:24:00.016Z,22.49
2024-05-09T06:29:05.564Z,24.14
2024-05-09T06:34:13.726Z,26.25
2024-05-09T06:39:18.735Z,28.33
2024-05-09T06:44:23.893Z,29.94
2024-05-09T06:49:33.919Z,28.42
2024-05-09T06:54:38.992Z,28.84
2024-05-09T06:59:43.984Z,29.90
2024-05-09T07:04:51.629Z,31.70
2024-05-09T07:09:57.024Z,32.15
2024-05-09T07:15:02.031Z,30.74
2024-05-09T07:20:16.550Z,29.02
2024-05-09T07:25:28.982Z,28.09
2024-05-09T07:30:35.019Z,27.27
2024-05-09T07:35:43.398Z,27.08
2024-05-09T07:40:48.526Z,26.79
2024-05-09T07:47:04.425Z,26.35
2024-05-09T07:53:08.883Z,26.31
2024-05-09T07:56:58.011Z,26.04
2024-05-09T08:02:03.290Z,25.52
2024-05-09T08:07:11.182Z,25.11
2024-05-09T08:12:16.712Z,25.58
2024-05-09T08:17:21.620Z,25.47
2024-05-09T08:22:32.478Z,24.99
2024-05-09T08:27:37.460Z,24.77
2024-05-09T08:32:43.485Z,24.61
2024-05-09T08:37:51.256Z,24.68
2024-05-09T08:42:59.036Z,24.37
2024-05-09T08:48:07.777Z,24.25
2024-05-09T08:53:16.144Z,23.97
2024-05-09T08:58:22.031Z,23.86
2024-05-09T09:03:30.422Z,23.89
2024-05-09T09:08:42.221Z,23.75
2024-05-09T09:13:47.403Z,23.63
2024-05-09T09:18:53.001Z,23.58
2024-05-09T09:24:06.994Z,23.57
2024-05-09T09:29:13.207Z,23.44
2024-05-09T09:34:18.442Z,23.24
2024-05-09T09:39:30.671Z,23.31
2024-05-09T09:44:39.569Z,23.39
2024-05-09T09:49:49.064Z,23.14
2024-05-09T09:54:58.500Z,23.07
2024-05-09T10:00:09.392Z,23.31
2024-05-09T10:05:18.976Z,23.38
2024-05-09T10:10:36.179Z,23.20
2024-05-09T10:15:48.385Z,23.19
2024-05-09T10:20:54.918Z,22.73
2024-05-09T10:26:05.568Z,22.46
2024-05-09T10:31:13.165Z,22.47
2024-05-09T10:36:22.786Z,22.65
2024-05-09T10:41:30.949Z,22.83
2024-05-09T10:46:36.115Z,23.02
2024-05-09T10:51:41.693Z,23.24
2024-05-09T10:56:50.498Z,23.28
2024-05-09T11:01:56.122Z,23.38
2024-05-09T11:07:06.976Z,23.29
2024-05-09T11:12:15.856Z,23.40
2024-05-09T11:17:21.232Z,23.07
2024-05-09T11:22:26.790Z,22.76
2024-05-09T11:27:35.016Z,22.64
2024-05-09T11:32:40.701Z,22.83
2024-05-09T11:37:45.962Z,22.92
2024-05-09T11:42:53.855Z,22.90
2024-05-09T11:47:59.139Z,22.96
2024-05-09T11:53:04.164Z,22.97
2024-05-09T11:58:13.088Z,22.95
2024-05-09T12:03:18.133Z,22.96
2024-05-09T12:08:23.976Z,22.87
2024-05-09T12:13:31.764Z,23.05
2024-05-09T12:18:37.247Z,23.15
2024-05-09T12:23:43.014Z,23.15
2024-05-09T12:28:51.349Z,23.23
2024-05-09T12:33:56.857Z,23.25
2024-05-09T12:39:02.140Z,23.15
2024-05-09T12:44:09.974Z,23.04
2024-05-09T12:49:17.241Z,22.69
2024-05-09T12:54:24.132Z,22.43
2024-05-09T12:59:31.990Z,22.46
2024-05-09T13:04:37.477Z,22.60
2024-05-09T13:09:43.165Z,22.64
2024-05-09T13:14:50.785Z,22.41
2024-05-09T13:19:55.798Z,22.09
2024-05-09T13:25:00.887Z,22.01
2024-05-09T13:30:14.712Z,22.10
2024-05-09T13:35:26.777Z,22.15
2024-05-09T13:40:34.701Z,22.16
2024-05-09T13:45:44.354Z,22.10
2024-05-09T13:50:49.705Z,21.85
2024-05-09T13:55:54.754Z,21.80
2024-05-09T14:01:02.428Z,21.71
2024-05-09T14:06:11.320Z,21.74
2024-05-09T14:11:18.090Z,21.74
2024-05-09T14:16:25.875Z,21.81
2024-05-09T14:21:31.009Z,21.65
2024-05-09T14:26:35.934Z,21.62
2024-05-09T14:31:43.526Z,21.58
2024-05-09T14:36:48.634Z,21.55
2024-05-09T14:41:54.195Z,21.50
2024-05-09T14:47:02.826Z,21.45
2024-05-09T14:52:09.573Z,21.40
2024-05-09T14:57:14.690Z,21.43
2024-05-09T15:02:22.777Z,21.46
2024-05-09T15:07:27.937Z,21.44
2024-05-09T15:12:34.288Z,21.37
2024-05-09T15:17:42.434Z,21.33
2024-05-09T15:22:49.580Z,21.30
2024-05-09T15:27:55.249Z,21.23
2024-05-09T15:33:07.527Z,21.22
2024-05-09T15:38:13.560Z,21.16
2024-05-09T15:43:19.393Z,21.04
2024-05-09T15:48:27.936Z,21.00
2024-05-09T15:53:33.022Z,21.00
2024-05-09T15:58:43.049Z,20.94
2024-05-09T16:03:52.300Z,20.86
2024-05-09T16:08:57.572Z,20.82
2024-05-09T16:14:03.049Z,20.80
2024-05-09T16:19:11.951Z,20.72
2024-05-09T16:24:17.472Z,20.70
2024-05-09T16:29:22.396Z,20.67
2024-05-09T16:34:30.162Z,20.65
2024-05-09T16:39:35.407Z,20.60
2024-05-09T16:44:40.861Z,20.53
2024-05-09T16:49:48.917Z,20.55
2024-05-09T16:54:54.411Z,20.53
2024-05-09T17:00:00.342Z,20.49
2024-05-09T17:05:08.562Z,20.43
2024-05-09T17:10:22.647Z,20.36
2024-05-09T17:15:35.183Z,20.28
2024-05-09T17:20:42.978Z,20.22
2024-05-09T17:25:48.163Z,20.13
2024-05-09T17:30:53.211Z,20.02
2024-05-09T17:36:00.856Z,19.96
2024-05-09T17:41:05.962Z,19.87
2024-05-09T17:46:12.649Z,19.80
2024-05-09T17:51:20.675Z,19.70
2024-05-09T17:56:25.723Z,19.59
2024-05-09T18:01:30.739Z,19.50
2024-05-09T18:06:38.553Z,19.38
2024-05-09T18:11:43.614Z,19.27
2024-05-09T18:22:05.306Z,19.05
2024-05-09T18:27:14.378Z,18.94
2024-05-09T18:32:19.410Z,18.84
2024-05-09T18:37:27.161Z,18.72
2024-05-09T18:42:32.267Z,18.60
2024-05-09T18:47:37.635Z,18.49
2024-05-09T18:52:48.575Z,18.39
2024-05-09T18:57:54.228Z,18.27
2024-05-09T19:02:59.777Z,18.15
2024-05-09T19:08:08.837Z,18.05
2024-05-09T19:13:19.385Z,17.95
2024-05-09T19:18:25.054Z,17.86
2024-05-09T19:23:38.016Z,17.74
2024-05-09T19:28:44.063Z,17.64
2024-05-09T19:33:49.149Z,17.52
2024-05-09T19:38:57.156Z,17.43
2024-05-09T19:44:02.312Z,17.34
2024-05-09T19:49:09.253Z,17.25
2024-05-09T19:54:17.401Z,17.16
2024-05-09T19:59:22.655Z,17.08
2024-05-09T20:04:27.884Z,17.00
2024-05-09T20:09:35.674Z,16.93
2024-05-09T20:14:40.691Z,16.85
2024-05-09T20:19:46.412Z,16.78
2024-05-09T20:24:54.478Z,16.73
2024-05-09T20:29:59.481Z,16.70
2024-05-09T20:35:04.608Z,16.63
2024-05-09T20:40:21.177Z,16.59
2024-05-09T20:45:30.664Z,16.52
2024-05-09T20:50:39.885Z,16.44
2024-05-09T20:55:49.941Z,16.40
2024-05-09T21:00:55.332Z,16.33
2024-05-09T21:06:01.076Z,16.26
2024-05-09T21:11:09.880Z,16.20
2024-05-09T21:16:14.867Z,16.13
2024-05-09T21:21:20.930Z,16.06
2024-05-09T21:26:29.725Z,16.00
2024-05-09T21:31:35.210Z,15.92
2024-05-09T21:36:40.826Z,15.86
2024-05-09T21:41:49.191Z,15.78
2024-05-09T21:46:54.827Z,15.70
2024-05-09T21:52:00.120Z,15.63
2024-05-09T21:57:10.220Z,15.59
2024-05-09T22:02:15.633Z,15.54
2024-05-09T22:07:22.302Z,15.49
2024-05-09T22:12:30.369Z,15.46
2024-05-09T22:17:35.621Z,15.39
2024-05-09T22:22:41.739Z,15.35
2024-05-09T22:27:49.677Z,15.30
2024-05-09T22:32:54.821Z,15.24
2024-05-09T22:38:00.629Z,15.18
2024-05-09T22:43:08.915Z,15.11
2024-05-09T22:48:14.732Z,15.05
2024-05-09T22:53:19.924Z,14.98
2024-05-09T22:58:27.688Z,14.93
2024-05-09T23:03:33.108Z,14.86
2024-05-09T23:08:38.239Z,14.82
2024-05-09T23:13:46.191Z,14.76
2024-05-09T23:18:51.404Z,14.69
2024-05-09T23:23:56.529Z,14.63
2024-05-09T23:29:04.433Z,14.59
2024-05-09T23:34:09.649Z,14.53
2024-05-09T23:39:14.588Z,14.47
2024-05-09T23:44:22.661Z,14.41
2024-05-09T23:49:27.990Z,14.37
2024-05-09T23:54:33.257Z,14.32
2024-05-09T23:59:41.136Z,14.29
